Time;durP1;ratioP1;P1;durP2;ratioP2;P2;SDS_P1;SDS_P2;PMS_P1;PMS_P2;Temp;Humidity;BMP_temperature;BMP_pressure;BME280_temperature;BME280_humidity;BME280_pressure;Samples;Min_cycle;Max_cycle;Signal;HPM_P1;HPM_P2
2024/01/08 00:04:09;;;;;;;11.25;5.50;;;;;;;1.45;100.00;100199.81;10290238;28;20515;-69
2024/01/08 00:09:10;;;;;;;17.63;6.18;;;;;;;1.46;100.00;100190.16;10290400;28;20077;-68
2024/01/08 00:14:11;;;;;;;16.20;5.72;;;;;;;1.07;100.00;100139.81;10289929;28;20077;-68
2024/01/08 00:19:12;;;;;;;15.57;5.05;;;;;;;1.20;100.00;100178.97;10297232;28;20481;-68
2024/01/08 00:24:13;;;;;;;20.15;5.90;;;;;;;1.15;100.00;100195.03;10297640;28;20447;-71
2024/01/08 00:29:13;;;;;;;43.70;6.22;;;;;;;1.05;100.00;100152.19;10297720;28;20045;-75
2024/01/08 00:34:14;;;;;;;43.53;6.45;;;;;;;1.33;100.00;100159.66;10297606;28;20031;-71
2024/01/08 00:39:15;;;;;;;32.38;5.53;;;;;;;1.28;100.00;100169.63;10297728;28;20043;-71
2024/01/08 00:44:16;;;;;;;50.13;6.65;;;;;;;0.90;100.00;100126.19;10295719;28;20058;-71
2024/01/08 00:49:16;;;;;;;43.55;6.65;;;;;;;1.24;100.00;100194.34;10296787;28;20051;-71
2024/01/08 00:54:18;;;;;;;16.15;6.20;;;;;;;1.22;100.00;100198.84;10295204;28;20039;-70
2024/01/08 00:59:19;;;;;;;24.00;6.28;;;;;;;1.12;100.00;100179.56;10295716;28;20043;-71
2024/01/08 01:04:19;;;;;;;9.73;5.90;;;;;;;0.89;100.00;100160.28;10294807;28;20043;-71
2024/01/08 01:09:20;;;;;;;10.93;6.75;;;;;;;1.16;100.00;100201.91;10295424;28;20077;-71
2024/01/08 01:14:21;;;;;;;25.83;7.47;;;;;;;1.20;100.00;100192.94;10295583;28;20039;-71
2024/01/08 01:19:22;;;;;;;23.20;7.07;;;;;;;1.36;100.00;100200.47;10295546;28;20039;-71
2024/01/08 01:24:22;;;;;;;26.38;8.25;;;;;;;1.47;100.00;100186.63;10295454;28;20038;-71
2024/01/08 01:29:23;;;;;;;50.10;9.40;;;;;;;1.40;100.00;100173.13;10294387;28;20043;-71
2024/01/08 01:34:24;;;;;;;55.67;8.80;;;;;;;1.22;100.00;100125.59;10295571;28;20429;-71
2024/01/08 01:39:25;;;;;;;37.60;9.70;;;;;;;1.55;100.00;100181.63;10296012;28;20047;-71
2024/01/08 01:44:26;;;;;;;34.55;8.90;;;;;;;1.33;100.00;100162.28;10294881;28;20063;-71
2024/01/08 01:49:26;;;;;;;29.15;9.70;;;;;;;1.60;100.00;100200.44;10294047;28;20069;-71
2024/01/08 01:54:28;;;;;;;35.28;9.18;;;;;;;1.47;100.00;100186.63;10293751;28;20045;-72
2024/01/08 01:59:30;;;;;;;40.67;9.15;;;;;;;1.18;100.00;100162.56;10293804;28;20495;-71
2024/01/08 02:04:31;;;;;;;26.38;8.65;;;;;;;1.06;100.00;100151.22;10293183;28;20094;-71
2024/01/08 02:09:32;;;;;;;13.30;7.30;;;;;;;1.17;100.00;100195.75;10293912;28;20038;-71
2024/01/08 02:14:33;;;;;;;17.85;7.18;;;;;;;0.99;100.00;100197.06;10293600;28;20047;-71
2024/01/08 02:19:34;;;;;;;18.15;7.95;;;;;;;0.49;100.00;100151.84;10293924;28;20162;-71
2024/01/08 02:24:36;;;;;;;10.82;5.93;;;;;;;0.80;100.00;100201.00;10292604;28;20042;-70
2024/01/08 02:29:37;;;;;;;8.95;5.82;;;;;;;0.74;100.00;100229.38;10292954;28;20046;-71
2024/01/08 02:34:38;;;;;;;11.05;7.65;;;;;;;0.38;100.00;100176.09;10292297;28;20042;-70
2024/01/08 02:39:39;;;;;;;13.45;8.05;;;;;;;0.54;100.00;100197.63;10292106;28;20050;-70
2024/01/08 02:44:40;;;;;;;17.10;8.10;;;;;;;0.45;100.00;100191.28;10292367;28;20137;-71
2024/01/08 02:49:41;;;;;;;9.98;6.65;;;;;;;0.39;100.00;100183.84;10291731;28;20061;-71
2024/01/08 02:54:42;;;;;;;10.05;5.72;;;;;;;0.61;100.00;100221.56;10292408;28;20483;-71
2024/01/08 02:59:43;;;;;;;14.38;6.90;;;;;;;0.53;100.00;100232.53;10291463;28;20070;-74
2024/01/08 03:04:44;;;;;;;16.67;6.63;;;;;;;0.16;100.00;100167.16;10292505;28;20044;-70
2024/01/08 03:09:44;;;;;;;16.63;6.90;;;;;;;0.47;100.00;100258.25;10291872;28;20070;-71
2024/01/08 03:14:45;;;;;;;13.85;8.32;;;;;;;0.45;100.00;100253.16;10288928;28;20664;-75
2024/01/08 03:19:46;;;;;;;21.75;7.18;;;;;;;0.42;100.00;100271.66;10285705;28;20149;-71
2024/01/08 03:24:47;;;;;;;14.40;7.35;;;;;;;0.14;100.00;100234.31;10285745;28;20038;-71
2024/01/08 03:29:48;;;;;;;17.70;7.30;;;;;;;0.26;100.00;100230.03;10285566;28;20419;-72
2024/01/08 03:34:49;;;;;;;11.63;6.93;;;;;;;0.35;100.00;100267.78;10287900;28;20392;-71
2024/01/08 03:39:50;;;;;;;17.02;7.70;;;;;;;-0.27;100.00;100180.53;10291099;28;20043;-71
2024/01/08 03:44:50;;;;;;;22.65;7.43;;;;;;;0.08;100.00;100234.75;10283105;28;20094;-71
2024/01/08 03:49:51;;;;;;;13.43;8.60;;;;;;;-0.05;100.00;100237.34;10290117;28;20038;-72
2024/01/08 03:54:52;;;;;;;13.98;8.15;;;;;;;0.03;100.00;100259.50;10298235;28;20418;-71
2024/01/08 03:59:53;;;;;;;29.10;12.30;;;;;;;-0.03;100.00;100274.66;10297315;28;20047;-71
2024/01/08 04:04:54;;;;;;;25.27;12.98;;;;;;;0.04;100.00;100287.31;10298592;28;20054;-71
2024/01/08 04:09:54;;;;;;;24.90;13.02;;;;;;;0.01;100.00;100295.34;10298290;28;20063;-71
2024/01/08 04:14:55;;;;;;;40.38;14.52;;;;;;;-0.09;100.00;100303.78;10297654;28;20051;-70
2024/01/08 04:19:56;;;;;;;31.48;13.00;;;;;;;-0.07;100.00;100299.28;10297598;28;20051;-71
2024/01/08 04:24:57;;;;;;;32.30;14.95;;;;;;;-0.09;100.00;100305.53;10298464;28;20070;-73
2024/01/08 04:29:58;;;;;;;29.45;13.77;;;;;;;-0.10;100.00;100302.09;10297659;28;20039;-71
2024/01/08 04:34:58;;;;;;;28.75;14.40;;;;;;;-0.21;100.00;100288.06;10297266;28;20051;-70
2024/01/08 04:39:59;;;;;;;26.25;14.27;;;;;;;-0.44;100.00;100287.81;10293463;28;20063;-71
2024/01/08 04:45:00;;;;;;;31.20;15.40;;;;;;;-0.37;100.00;100289.06;10296581;28;20054;-71
2024/01/08 04:50:02;;;;;;;29.13;14.43;;;;;;;-0.51;100.00;100252.59;10296717;28;20039;-71
2024/01/08 04:55:03;;;;;;;20.55;10.32;;;;;;;-0.40;100.00;100278.00;10296123;28;20047;-70
2024/01/08 05:00:06;;;;;;;26.27;13.45;;;;;;;-0.39;100.00;100283.13;10296010;28;20046;-70
2024/01/08 05:05:07;;;;;;;23.70;10.18;;;;;;;-0.39;100.00;100321.41;10296330;28;20142;-71
2024/01/08 05:10:08;;;;;;;24.20;12.88;;;;;;;-0.74;100.00;100269.72;10295214;28;20035;-70
2024/01/08 05:15:09;;;;;;;23.80;12.90;;;;;;;-0.30;100.00;100341.72;10295296;28;20046;-70
2024/01/08 05:20:11;;;;;;;26.38;13.50;;;;;;;-0.23;100.00;100366.50;10295737;28;20038;-70
2024/01/08 05:25:11;;;;;;;27.05;13.65;;;;;;;-0.18;100.00;100364.44;10294292;28;20049;-70
2024/01/08 05:30:12;;;;;;;23.20;12.00;;;;;;;-0.13;100.00;100358.91;10292212;28;20046;-70
2024/01/08 05:35:13;;;;;;;27.58;12.13;;;;;;;-0.21;100.00;100348.13;10294536;28;20046;-67
2024/01/08 05:40:14;;;;;;;26.30;12.48;;;;;;;-0.20;100.00;100353.25;10294115;28;20105;-68
2024/01/08 05:45:15;;;;;;;23.77;11.38;;;;;;;-0.20;100.00;100347.19;10294098;28;20046;-68
2024/01/08 05:50:19;;;;;;;19.45;10.88;;;;;;;-0.60;100.00;100264.47;10294038;28;20054;-69
2024/01/08 05:55:20;;;;;;;27.92;11.98;;;;;;;-0.60;100.00;100263.63;10294756;28;20070;-68
2024/01/08 06:00:21;;;;;;;27.67;15.23;;;;;;;-0.13;100.00;100330.19;10293578;28;20058;-68
2024/01/08 06:05:22;;;;;;;35.60;12.60;;;;;;;-0.11;100.00;100316.09;10293991;28;20520;-69
2024/01/08 06:10:23;;;;;;;32.63;14.73;;;;;;;-0.02;100.00;100296.38;10292261;28;20038;-68
2024/01/08 06:15:24;;;;;;;24.70;13.05;;;;;;;-0.12;100.00;100295.28;10292959;28;20042;-68
2024/01/08 06:20:24;;;;;;;29.75;14.70;;;;;;;-0.07;100.00;100306.28;10293343;28;20070;-68
2024/01/08 06:25:25;;;;;;;34.53;14.30;;;;;;;0.02;100.00;100307.44;10292461;28;20055;-71
2024/01/08 06:30:26;;;;;;;26.08;11.52;;;;;;;0.05;100.00;100309.84;10291767;28;20479;-71
2024/01/08 06:35:27;;;;;;;23.02;11.65;;;;;;;-0.01;100.00;100279.75;10292555;28;20142;-71
2024/01/08 06:40:28;;;;;;;22.08;11.70;;;;;;;0.10;100.00;100300.78;10284007;28;20085;-72
2024/01/08 06:45:29;;;;;;;18.58;10.32;;;;;;;0.18;100.00;100308.97;10292433;28;20046;-71
2024/01/08 06:50:30;;;;;;;17.95;9.85;;;;;;;0.18;100.00;100281.97;10289268;28;20047;-70
2024/01/08 06:55:30;;;;;;;21.13;11.75;;;;;;;0.23;100.00;100287.72;10291225;28;20090;-73
2024/01/08 07:00:31;;;;;;;27.25;11.63;;;;;;;0.18;100.00;100264.53;10290716;28;20039;-72
2024/01/08 07:05:32;;;;;;;31.40;11.15;;;;;;;0.26;100.00;100256.16;10289464;28;20402;-71
2024/01/08 07:10:34;;;;;;;23.52;11.48;;;;;;;0.31;100.00;100248.03;10290920;28;20042;-70
2024/01/08 07:15:44;;;;;;;19.73;9.93;;;;;;;0.34;100.00;100258.28;10291209;28;20051;-70
2024/01/08 07:20:45;;;;;;;23.60;12.35;;;;;;;0.03;100.00;100221.19;10289933;28;20057;-72
2024/01/08 07:25:46;;;;;;;22.35;11.75;;;;;;;0.33;100.00;100252.22;10292558;28;20047;-71
2024/01/08 07:30:47;;;;;;;33.38;12.88;;;;;;;0.29;100.00;100262.97;10298100;28;20039;-73
2024/01/08 07:35:47;;;;;;;11.57;6.28;;;;;;;0.52;100.00;100290.16;10299067;28;20046;-69
2024/01/08 07:40:48;;;;;;;13.45;7.10;;;;;;;0.65;100.00;100302.25;10297193;28;20058;-72
2024/01/08 07:45:49;;;;;;;15.07;8.25;;;;;;;0.44;100.00;100252.28;10298630;28;20428;-71
2024/01/08 07:50:50;;;;;;;15.90;8.73;;;;;;;0.29;100.00;100237.66;10293199;28;20499;-71
2024/01/08 07:55:51;;;;;;;16.63;9.23;;;;;;;0.57;100.00;100248.84;10298496;28;20050;-71
2024/01/08 08:00:51;;;;;;;15.13;8.50;;;;;;;0.54;100.00;100247.28;10297376;28;20674;-72
2024/01/08 08:05:52;;;;;;;14.43;9.20;;;;;;;0.72;100.00;100249.53;10297976;28;20039;-73
2024/01/08 08:10:53;;;;;;;31.85;13.32;;;;;;;0.08;100.00;100140.72;10297414;28;20129;-72
2024/01/08 08:15:54;;;;;;;35.63;15.52;;;;;;;0.32;100.00;100179.97;10297898;28;20035;-70
2024/01/08 08:20:57;;;;;;;55.60;15.98;;;;;;;0.63;100.00;100227.53;10297208;28;20074;-71
2024/01/08 08:25:57;;;;;;;36.97;13.82;;;;;;;0.63;100.00;100237.97;10297288;28;20046;-72
2024/01/08 08:30:58;;;;;;;40.08;10.73;;;;;;;0.47;100.00;100213.84;10295909;28;20062;-72
2024/01/08 08:35:59;;;;;;;15.90;8.95;;;;;;;0.42;100.00;100188.03;10279828;28;20066;-70
2024/01/08 08:40:59;;;;;;;29.60;9.45;;;;;;;0.72;100.00;100231.25;10295641;28;20109;-72
2024/01/08 08:46:00;;;;;;;20.23;8.40;;;;;;;0.44;100.00;100168.66;10296711;28;20066;-73
2024/01/08 08:51:01;;;;;;;18.67;9.80;;;;;;;0.49;100.00;100144.00;10296679;28;20418;-72
2024/01/08 08:56:04;;;;;;;24.85;9.05;;;;;;;0.58;100.00;100144.19;10295844;28;20039;-71
2024/01/08 09:01:05;;;;;;;28.25;9.23;;;;;;;0.95;100.00;100191.22;10296126;28;20043;-71
2024/01/08 09:06:07;;;;;;;23.73;14.98;;;;;;;1.01;100.00;100180.31;10295585;28;20051;-72
2024/01/08 09:11:08;;;;;;;65.72;30.95;;;;;;;0.87;100.00;100183.94;10296051;28;20503;-70
2024/01/08 09:16:10;;;;;;;32.13;10.30;;;;;;;0.93;100.00;100179.19;10295716;28;20088;-71
2024/01/08 09:21:12;;;;;;;13.40;7.35;;;;;;;0.93;100.00;100171.34;10295314;28;20133;-70
2024/01/08 09:26:13;;;;;;;27.40;9.35;;;;;;;0.93;100.00;100129.50;10295440;28;20049;-72
2024/01/08 09:31:14;;;;;;;29.40;9.20;;;;;;;0.69;100.00;100065.00;10296070;28;20053;-74
2024/01/08 09:36:15;;;;;;;51.60;10.60;;;;;;;0.94;100.00;100097.19;10293939;28;20042;-71
2024/01/08 09:41:16;;;;;;;27.13;7.88;;;;;;;0.83;100.00;100077.88;10294472;28;20110;-71
2024/01/08 09:46:26;;;;;;;18.70;8.27;;;;;;;0.64;100.00;100030.50;10294620;28;20067;-70
2024/01/08 09:51:28;;;;;;;32.50;7.35;;;;;;;0.99;100.00;100118.59;10293054;28;20041;-71
2024/01/08 09:56:30;;;;;;;30.27;8.10;;;;;;;0.92;100.00;100118.22;10293013;28;20130;-72
2024/01/08 10:01:31;;;;;;;15.50;8.52;;;;;;;0.81;100.00;100094.66;10292362;28;20047;-71
2024/01/08 10:06:32;;;;;;;15.18;7.47;;;;;;;1.01;100.00;100116.72;10289779;28;20054;-73
2024/01/08 10:11:33;;;;;;;14.35;7.43;;;;;;;1.16;100.00;100135.69;10290310;28;20079;-71
2024/01/08 10:16:34;;;;;;;13.73;7.90;;;;;;;1.21;100.00;100126.56;10293554;28;20030;-71
2024/01/08 10:21:35;;;;;;;15.95;8.13;;;;;;;1.13;100.00;100129.72;10293693;28;20129;-71
2024/01/08 10:26:39;;;;;;;13.45;7.38;;;;;;;1.16;100.00;100131.28;10291132;28;20065;-71
2024/01/08 10:31:40;;;;;;;20.15;6.93;;;;;;;1.13;100.00;100116.63;10293207;28;20049;-72
2024/01/08 10:36:42;;;;;;;14.05;6.88;;;;;;;1.21;100.00;100103.00;10292116;28;20038;-71
2024/01/08 10:41:43;;;;;;;11.68;6.50;;;;;;;1.18;100.00;100066.59;10291229;28;20054;-73
2024/01/08 10:46:57;;;;;;;14.73;7.85;;;;;;;0.93;100.00;100019.66;10291195;28;20047;-72
2024/01/08 10:52:05;;;;;;;13.70;7.32;;;;;;;1.30;100.00;100097.09;10284001;28;20050;-71
2024/01/08 10:57:11;;;;;;;16.05;8.18;;;;;;;1.34;100.00;100102.91;10290252;28;20054;-71
2024/01/08 11:02:16;;;;;;;14.85;7.82;;;;;;;1.42;100.00;100102.34;10291066;28;20133;-72
2024/01/08 11:07:19;;;;;;;124.20;57.55;;;;;;;1.30;100.00;100076.16;10278465;28;20098;-72
2024/01/08 11:12:19;;;;;;;185.15;91.43;;;;;;;1.47;100.00;100115.94;10270202;28;20041;-70
2024/01/08 11:17:20;;;;;;;47.85;27.52;;;;;;;1.51;100.00;100085.94;10270591;28;20043;-70
2024/01/08 11:22:21;;;;;;;242.80;175.57;;;;;;;1.56;100.00;100082.03;10277316;28;20062;-71
2024/01/08 11:27:22;;;;;;;39.60;30.50;;;;;;;1.24;100.00;100060.91;10273672;28;20042;-72
2024/01/08 11:32:31;;;;;;;209.88;143.80;;;;;;;1.49;100.00;100111.41;10290328;28;20057;-72
2024/01/08 11:37:39;;;;;;;22.73;16.40;;;;;;;1.70;100.00;100170.00;10291131;28;20500;-74
2024/01/08 11:42:40;;;;;;;40.63;31.20;;;;;;;1.70;100.00;100156.06;10291068;28;20063;-73
2024/01/08 11:47:43;;;;;;;28.55;14.18;;;;;;;1.66;100.00;100168.56;10291571;28;20050;-74
2024/01/08 11:52:44;;;;;;;33.70;20.83;;;;;;;1.58;100.00;100158.66;10291163;28;20070;-73
2024/01/08 11:57:45;;;;;;;24.33;16.67;;;;;;;1.50;100.00;100137.47;10291126;28;20066;-72
2024/01/08 12:02:47;;;;;;;43.05;31.75;;;;;;;1.50;100.00;100152.34;10291073;28;20050;-72
2024/01/08 12:07:51;;;;;;;77.35;54.55;;;;;;;1.54;100.00;100149.38;10288635;28;20034;-73
2024/01/08 12:12:55;;;;;;;19.08;13.95;;;;;;;1.61;100.00;100202.13;10277201;28;20418;-71
2024/01/08 12:17:56;;;;;;;75.60;67.27;;;;;;;1.64;100.00;100212.34;10281800;28;20145;-73
2024/01/08 12:22:56;;;;;;;36.83;23.75;;;;;;;1.51;100.00;100222.09;10297311;28;20134;-74
2024/01/08 12:28:01;;;;;;;20.38;12.07;;;;;;;1.23;100.00;100189.25;10298069;28;20039;-70
2024/01/08 12:33:05;;;;;;;46.15;37.72;;;;;;;1.44;100.00;100215.63;10295993;28;20035;-73
2024/01/08 12:38:06;;;;;;;262.38;168.00;;;;;;;1.07;100.00;100158.94;10289099;28;20050;-72
2024/01/08 12:43:07;;;;;;;116.22;90.28;;;;;;;1.40;100.00;100211.56;10275968;28;20055;-71
2024/01/08 12:48:08;;;;;;;212.90;164.48;;;;;;;1.07;100.00;100158.94;10283382;28;20058;-72
2024/01/08 12:53:08;;;;;;;49.40;39.80;;;;;;;1.37;100.00;100200.34;10280851;28;20047;-72
2024/01/08 12:58:10;;;;;;;89.60;66.00;;;;;;;1.06;100.00;100128.50;10275456;28;20043;-71
2024/01/08 13:03:10;;;;;;;69.05;52.78;;;;;;;1.35;100.00;100178.72;10277284;28;20031;-73
2024/01/08 13:08:11;;;;;;;21.60;10.65;;;;;;;1.35;100.00;100191.81;10287097;28;20046;-72
2024/01/08 13:13:12;;;;;;;40.60;27.98;;;;;;;1.09;100.00;100151.00;10277044;28;20403;-73
2024/01/08 13:18:13;;;;;;;13.02;9.38;;;;;;;1.48;100.00;100206.59;10280404;28;20047;-73
2024/01/08 13:23:13;;;;;;;15.68;11.68;;;;;;;1.41;100.00;100194.91;10279928;28;20096;-72
2024/01/08 13:28:14;;;;;;;45.35;40.40;;;;;;;1.33;100.00;100198.91;10272715;28;20047;-73
2024/01/08 13:33:15;;;;;;;36.25;31.50;;;;;;;1.39;100.00;100183.72;10278630;28;20047;-73
2024/01/08 13:38:16;;;;;;;32.50;28.98;;;;;;;1.33;100.00;100154.44;10280745;28;20039;-73
2024/01/08 13:43:17;;;;;;;92.95;64.97;;;;;;;0.92;100.00;100089.44;10281294;28;20145;-72
2024/01/08 13:48:17;;;;;;;28.92;19.85;;;;;;;1.13;100.00;100136.75;10278008;28;20053;-73
2024/01/08 13:53:21;;;;;;;16.90;10.48;;;;;;;1.07;100.00;100124.94;10278587;28;20042;-75
2024/01/08 13:58:22;;;;;;;72.20;46.60;;;;;;;1.04;100.00;100132.19;10275040;28;20463;-73
2024/01/08 14:03:23;;;;;;;211.25;136.55;;;;;;;0.77;100.00;100106.25;10275416;28;20094;-73
2024/01/08 14:08:23;;;;;;;39.78;29.85;;;;;;;1.00;100.00;100146.44;10278752;28;20127;-74
2024/01/08 14:13:24;;;;;;;26.35;21.00;;;;;;;0.91;100.00;100174.94;10275152;28;20048;-72
2024/01/08 14:18:25;;;;;;;20.98;14.55;;;;;;;0.81;100.00;100191.41;10271472;28;20035;-74
2024/01/08 14:23:26;;;;;;;24.70;20.23;;;;;;;0.66;100.00;100182.88;10275654;28;20046;-74
2024/01/08 14:28:27;;;;;;;31.00;20.80;;;;;;;0.62;100.00;100200.53;10265907;28;20047;-72
2024/01/08 14:33:28;;;;;;;17.83;13.77;;;;;;;0.87;100.00;100249.31;10279066;28;20491;-72
2024/01/08 14:38:29;;;;;;;11.50;7.22;;;;;;;0.86;100.00;100239.78;10292342;28;20038;-71
2024/01/08 14:43:30;;;;;;;14.35;9.50;;;;;;;0.86;100.00;100231.94;10292213;28;20058;-72
2024/01/08 14:48:31;;;;;;;25.55;16.40;;;;;;;0.49;100.00;100157.06;10291529;28;20198;-73
2024/01/08 14:53:36;;;;;;;22.38;10.38;;;;;;;0.43;100.00;100153.94;10271968;28;20133;-72
2024/01/08 14:58:37;;;;;;;44.20;27.85;;;;;;;0.32;100.00;100117.28;10250802;28;20043;-73
2024/01/08 15:03:38;;;;;;;20.77;11.88;;;;;;;0.66;100.00;100178.47;10260169;28;20053;-73
2024/01/08 15:08:39;;;;;;;16.50;9.63;;;;;;;0.76;100.00;100181.25;10285798;28;20038;-71
2024/01/08 15:13:40;;;;;;;16.63;8.93;;;;;;;0.48;100.00;100129.25;10274278;28;20190;-70
2024/01/08 15:18:41;;;;;;;11.68;6.80;;;;;;;0.17;100.00;100087.00;10285176;28;20137;-74
2024/01/08 15:23:42;;;;;;;12.90;7.28;;;;;;;0.66;100.00;100185.47;10289689;28;20049;-73
2024/01/08 15:28:49;;;;;;;18.40;8.73;;;;;;;0.63;100.00;100190.94;10264272;28;20484;-73
2024/01/08 15:33:49;;;;;;;13.65;7.15;;;;;;;0.15;100.00;100108.03;10272703;28;20553;-73
2024/01/08 15:38:50;;;;;;;11.80;7.03;;;;;;;0.53;100.00;100153.28;10290692;28;20042;-75
2024/01/08 15:43:52;;;;;;;13.23;7.18;;;;;;;0.38;100.00;100144.75;10291494;28;20133;-75
2024/01/08 15:48:53;;;;;;;17.17;7.78;;;;;;;0.44;100.00;100128.63;10293269;28;20054;-75
2024/01/08 15:53:54;;;;;;;12.20;7.60;;;;;;;0.41;100.00;100118.41;10258400;28;20043;-74
2024/01/08 15:58:57;;;;;;;49.20;24.27;;;;;;;0.39;100.00;100128.97;10283042;28;20047;-73
2024/01/08 16:03:58;;;;;;;22.75;14.07;;;;;;;0.35;100.00;100132.72;10298731;28;20093;-73
2024/01/08 16:08:59;;;;;;;15.07;8.75;;;;;;;0.31;100.00;100143.53;10295556;28;20035;-74
2024/01/08 16:13:59;;;;;;;28.00;12.32;;;;;;;0.12;100.00;100096.94;10297703;28;20049;-73
2024/01/08 16:19:00;;;;;;;14.98;8.60;;;;;;;-0.10;100.00;100066.25;10298053;28;20031;-73
2024/01/08 16:24:01;;;;;;;28.25;8.63;;;;;;;0.20;100.00;100085.00;10298017;28;20506;-71
2024/01/08 16:29:02;;;;;;;27.60;7.78;;;;;;;0.11;100.00;100069.16;10298001;28;20478;-72
2024/01/08 16:34:03;;;;;;;29.23;9.18;;;;;;;0.02;100.00;100082.84;10296899;28;20526;-73
2024/01/08 16:39:04;;;;;;;23.52;8.82;;;;;;;0.09;100.00;100138.94;10296722;28;20101;-73
2024/01/08 16:44:07;;;;;;;27.92;7.97;;;;;;;0.08;100.00;100125.03;10297576;28;20490;-74
2024/01/08 16:49:07;;;;;;;20.13;8.05;;;;;;;0.05;100.00;100093.09;10293534;28;20073;-73
2024/01/08 16:54:09;;;;;;;12.88;7.47;;;;;;;0.11;100.00;100117.00;10296258;28;20081;-73
2024/01/08 16:59:10;;;;;;;16.40;7.20;;;;;;;0.27;100.00;100135.06;10296449;28;20038;-72
2024/01/08 17:04:10;;;;;;;11.95;6.72;;;;;;;0.14;100.00;100095.06;10295805;28;20053;-71
2024/01/08 17:09:13;;;;;;;13.85;7.00;;;;;;;0.22;100.00;100087.53;10296476;28;20129;-72
2024/01/08 17:14:13;;;;;;;12.77;6.43;;;;;;;0.32;100.00;100125.09;10294543;28;20071;-73
2024/01/08 17:19:14;;;;;;;10.23;6.15;;;;;;;0.37;100.00;100138.69;10295976;28;20058;-73
2024/01/08 17:24:15;;;;;;;12.75;6.38;;;;;;;0.38;100.00;100142.97;10295858;28;20047;-73
2024/01/08 17:29:16;;;;;;;8.50;5.55;;;;;;;0.44;100.00;100134.69;10295131;28;20043;-73
2024/01/08 17:34:17;;;;;;;10.35;6.53;;;;;;;0.36;100.00;100108.28;10295350;28;20053;-73
2024/01/08 17:39:18;;;;;;;17.40;6.65;;;;;;;0.38;100.00;100106.38;10295157;28;20050;-73
2024/01/08 17:44:19;;;;;;;10.07;6.70;;;;;;;0.32;100.00;100104.22;10294232;28;20063;-73
2024/01/08 17:49:20;;;;;;;10.68;6.28;;;;;;;0.43;100.00;100101.69;10294325;28;20051;-73
2024/01/08 17:54:24;;;;;;;11.80;6.68;;;;;;;0.47;100.00;100101.47;10294899;28;20407;-75
2024/01/08 17:59:24;;;;;;;12.70;7.57;;;;;;;0.44;100.00;100081.59;10294400;28;20416;-73
2024/01/08 18:04:25;;;;;;;12.25;7.00;;;;;;;0.42;100.00;100100.03;10293501;28;20042;-72
2024/01/08 18:09:26;;;;;;;13.30;6.70;;;;;;;0.32;100.00;100067.63;10292856;28;20054;-73
2024/01/08 18:14:28;;;;;;;9.65;6.20;;;;;;;0.42;100.00;100067.84;10293945;28;20125;-73
2024/01/08 18:19:29;;;;;;;11.85;7.30;;;;;;;0.52;100.00;100115.03;10292384;28;20388;-72
2024/01/08 18:24:29;;;;;;;13.35;7.18;;;;;;;0.24;100.00;100043.84;10293848;28;20491;-73
2024/01/08 18:29:30;;;;;;;12.77;7.28;;;;;;;0.62;100.00;100110.81;10292662;28;20199;-72
2024/01/08 18:34:31;;;;;;;10.75;6.88;;;;;;;0.25;100.00;100036.84;10292393;28;20139;-72
2024/01/08 18:39:31;;;;;;;10.02;6.53;;;;;;;0.75;100.00;100131.66;10293272;28;20046;-73
2024/01/08 18:44:32;;;;;;;13.88;7.20;;;;;;;0.79;100.00;100136.59;10293056;28;20550;-73
2024/01/08 18:49:33;;;;;;;10.43;6.65;;;;;;;0.46;100.00;100084.94;10291339;28;20576;-73
2024/01/08 18:54:34;;;;;;;10.65;7.15;;;;;;;0.85;100.00;100144.00;10291898;28;20047;-73
2024/01/08 18:59:35;;;;;;;11.80;6.50;;;;;;;0.81;100.00;100132.09;10285607;28;20054;-74
2024/01/08 19:04:36;;;;;;;13.85;7.43;;;;;;;0.92;100.00;100110.38;10290633;28;20046;-73
2024/01/08 19:09:37;;;;;;;12.38;6.85;;;;;;;0.96;100.00;100129.28;10290372;28;20125;-73
2024/01/08 19:14:37;;;;;;;10.23;6.78;;;;;;;0.68;100.00;100099.91;10291358;28;20039;-73
2024/01/08 19:19:38;;;;;;;12.25;7.35;;;;;;;0.86;100.00;100143.03;10291996;28;20070;-72
2024/01/08 19:24:39;;;;;;;11.73;7.20;;;;;;;0.86;100.00;100119.50;10291358;28;20039;-72
2024/01/08 19:29:45;;;;;;;10.13;6.55;;;;;;;0.94;100.00;100099.81;10291066;28;20049;-73
2024/01/08 19:34:49;;;;;;;13.50;7.35;;;;;;;0.98;100.00;100103.84;10290713;28;20046;-72
2024/01/08 19:39:49;;;;;;;12.27;7.72;;;;;;;0.93;100.00;100066.75;10291341;28;20129;-72
2024/01/08 19:44:50;;;;;;;13.30;7.82;;;;;;;0.56;100.00;100041.50;10290711;28;20141;-73
2024/01/08 19:49:51;;;;;;;13.23;8.48;;;;;;;0.51;100.00;99998.34;10290698;28;20051;-72
2024/01/08 19:54:53;;;;;;;14.05;8.07;;;;;;;0.54;100.00;99987.69;10291207;28;20511;-72
2024/01/08 19:59:54;;;;;;;13.40;8.23;;;;;;;0.77;100.00;100046.94;10290435;28;20039;-72
2024/01/08 20:04:56;;;;;;;14.27;8.68;;;;;;;0.72;100.00;100051.69;10290465;28;20562;-72
2024/01/08 20:09:56;;;;;;;15.05;9.07;;;;;;;0.74;100.00;100062.88;10289781;28;20035;-73
2024/01/08 20:14:57;;;;;;;13.93;8.18;;;;;;;0.21;100.00;99971.75;10290024;28;20133;-73
2024/01/08 20:19:58;;;;;;;13.00;8.20;;;;;;;0.73;100.00;100066.44;10290817;28;20039;-72
2024/01/08 20:24:59;;;;;;;14.38;9.05;;;;;;;0.88;100.00;100078.38;10290019;28;20043;-72
2024/01/08 20:30:00;;;;;;;15.73;8.50;;;;;;;0.73;100.00;100029.84;10290875;28;20039;-72
2024/01/08 20:35:00;;;;;;;14.50;9.13;;;;;;;0.87;100.00;100063.66;10294516;28;20047;-72
2024/01/08 20:40:01;;;;;;;12.55;8.45;;;;;;;0.81;100.00;100043.19;10296142;28;20049;-73
2024/01/08 20:45:02;;;;;;;21.33;9.05;;;;;;;0.79;100.00;100025.94;10297313;28;20047;-72
2024/01/08 20:50:03;;;;;;;15.85;10.38;;;;;;;0.74;100.00;100035.88;10296900;28;20053;-72
2024/01/08 20:55:04;;;;;;;15.00;9.13;;;;;;;0.36;100.00;99951.50;10296382;28;20122;-72
2024/01/08 21:00:06;;;;;;;15.15;9.85;;;;;;;0.66;100.00;100005.09;10296055;28;20039;-72
2024/01/08 21:05:07;;;;;;;14.77;9.07;;;;;;;0.33;100.00;99950.88;10296674;28;20042;-72
2024/01/08 21:10:09;;;;;;;14.13;9.02;;;;;;;0.71;100.00;100002.13;10296667;28;20043;-72
2024/01/08 21:15:10;;;;;;;12.93;8.85;;;;;;;0.74;100.00;99984.44;10294529;28;20454;-72
2024/01/08 21:20:11;;;;;;;13.35;8.52;;;;;;;0.67;100.00;99997.13;10296119;28;20038;-72
2024/01/08 21:25:12;;;;;;;12.18;8.25;;;;;;;0.72;100.00;99988.97;10295262;28;20131;-72
2024/01/08 21:30:14;;;;;;;13.82;8.52;;;;;;;0.88;100.00;100017.41;10295943;28;20561;-72
2024/01/08 21:35:15;;;;;;;11.82;8.32;;;;;;;0.87;100.00;100000.88;10295645;28;20050;-72
2024/01/08 21:40:16;;;;;;;15.55;8.93;;;;;;;0.84;100.00;99980.19;10295001;28;20569;-72
2024/01/08 21:45:17;;;;;;;16.90;8.85;;;;;;;0.85;100.00;99960.94;10293304;28;20101;-72
2024/01/08 21:50:17;;;;;;;13.88;8.55;;;;;;;0.84;100.00;99954.06;10294341;28;20046;-72
2024/01/08 21:55:18;;;;;;;12.82;8.52;;;;;;;0.83;100.00;99965.44;10294296;28;20043;-72
2024/01/08 22:00:19;;;;;;;11.27;7.82;;;;;;;0.82;100.00;99955.09;10293813;28;20043;-72
2024/01/08 22:05:21;;;;;;;12.20;8.20;;;;;;;0.63;100.00;99919.06;10293526;28;20419;-72
2024/01/08 22:10:21;;;;;;;11.45;7.95;;;;;;;0.99;100.00;99998.28;10294214;28;20046;-72
2024/01/08 22:15:22;;;;;;;10.75;7.68;;;;;;;1.05;100.00;99992.63;10293368;28;20049;-74
2024/01/08 22:20:23;;;;;;;13.00;7.38;;;;;;;1.09;100.00;99996.66;10293223;28;20504;-72
2024/01/08 22:25:23;;;;;;;12.27;7.65;;;;;;;0.79;100.00;99931.81;10292808;28;20047;-72
2024/01/08 22:30:24;;;;;;;9.85;6.80;;;;;;;1.28;100.00;99996.91;10292814;28;20105;-72
2024/01/08 22:35:25;;;;;;;11.40;7.00;;;;;;;1.34;100.00;100009.53;10292654;28;20586;-72
2024/01/08 22:40:25;;;;;;;11.27;6.63;;;;;;;1.08;100.00;99966.22;10293470;28;20073;-72
2024/01/08 22:45:26;;;;;;;9.20;5.82;;;;;;;1.35;100.00;99986.84;10292131;28;20499;-72